Temp     Hi    Low   Out    Dew  Wind  Wind   Wind    Hi    Hi   Wind   Heat    THW   THSW                Rain  Solar   Solar Hi Solar   UV    UV    Hi     Heat    Cool    In     In    In     In           Wind  Wind    ISS   Arc.
  Date    Time     Out   Temp   Temp   Hum    Pt. Speed   Dir    Run Speed   Dir  Chill  Index  Index  Index   Bar    Rain  Rate   Rad.  Energy    Rad.  Index  Dose   UV     D-D     D-D    Temp   Hum    Dew   Heat     ET   Samp   Tx   Recept  Int.
---------------------------------------------------------------------------------------------------------------------------------------------------------------------------------------------------------------------------------------------------------
23/11/20   0.15    4.8    5.2    4.8    85    2.5   0.0   ---   0.00   0.0   ---    4.8    4.7    4.7    3.0  ------  0.00   0.0     0     0.00      0     0.0  0.00   0.0   0.141   0.000   14.0    51    4.0   12.9    0.00   346    1    100.0   15 
23/11/20   0.30    4.1    4.8    4.1    85    1.8   0.0   ---   0.00   0.0   ---    4.1    3.9    3.9    2.3  ------  0.00   0.0     0     0.00      0     0.0  0.00   0.0   0.149   0.000   14.0    51    4.0   12.9    0.00   352    1    100.0   15 
23/11/20   0.45    4.2    4.2    4.0    86    2.0   0.0   ---   0.00   0.0   ---    4.2    4.1    4.1    2.4  ------  0.00   0.0     0     0.00      0     0.0  0.00   0.0   0.148   0.000   14.0    51    4.0   12.9    0.00   349    1    100.0   15 
23/11/20   1.00    4.3    4.3    4.1    87    2.4   0.0   ---   0.00   0.0   ---    4.3    4.2    4.2    2.6  ------  0.00   0.0     0     0.00      0     0.0  0.00   0.0   0.146   0.000   13.9    51    4.0   12.9    0.00   351    1    100.0   15 
23/11/20   1.15    4.2    4.4    4.2    87    2.2   0.0   ---   0.00   0.0   ---    4.2    4.1    4.1    2.4  ------  0.00   0.0     0     0.00      0     0.0  0.00   0.0   0.147   0.000   13.9    51    4.0   12.9    0.00   350    1    100.0   15 
23/11/20   1.30    4.2    4.4    4.2    87    2.2   0.0   ---   0.00   0.0   ---    4.2    4.1    4.1    2.4  ------  0.00   0.0     0     0.00      0     0.0  0.00   0.0   0.147   0.000   13.9    51    4.0   12.9    0.00   352    1    100.0   15 
23/11/20   1.45    4.4    4.4    4.2    87    2.5   0.0   ---   0.00   0.0   ---    4.4    4.3    4.3    2.7  ------  0.00   0.0     0     0.00      0     0.0  0.00   0.0   0.145   0.000   13.8    51    3.9   12.8    0.00   351    1    100.0   15 
23/11/20   2.00    4.2    4.6    4.2    87    2.2   0.0   ---   0.00   0.0   ---    4.2    4.1    4.1    2.4  ------  0.00   0.0     0     0.00      0     0.0  0.00   0.0   0.147   0.000   13.8    52    4.1   12.8    0.00   351    1    100.0   15 
23/11/20   2.15    4.2    4.3    4.2    87    2.2   0.0   ---   0.00   0.0   ---    4.2    4.1    4.1    2.4  ------  0.00   0.0     0     0.00      0     0.0  0.00   0.0   0.148   0.000   13.8    52    4.1   12.8    0.00   350    1    100.0   15 
23/11/20   2.30    5.2    5.3    4.2    87    3.2   0.0   ---   0.00   0.0   ---    5.2    5.2    5.2    3.5  ------  0.00   0.0     0     0.00      0     0.0  0.00   0.0   0.137   0.000   13.8    52    4.1   12.8    0.00   350    1    100.0   15 
23/11/20   2.45    4.2    5.2    4.2    86    2.1   0.0   ---   0.00   0.0   ---    4.2    4.1    4.1    2.4  ------  0.00   0.0     0     0.00      0     0.0  0.00   0.0   0.147   0.000   13.8    52    4.1   12.8    0.00   351    1    100.0   15 
23/11/20   3.00    4.8    4.8    3.9    88    3.0   0.0   ---   0.00   0.0   ---    4.8    4.7    4.7    3.1  ------  0.00   0.0     0     0.00      0     0.0  0.00   0.0   0.141   0.000   13.8    52    4.1   12.8    0.00   351    1    100.0   15 
23/11/20   3.15    4.3    4.8    4.3    87    2.4   0.0   ---   0.00   0.0   ---    4.3    4.2    4.2    2.6  ------  0.00   0.0     0     0.00      0     0.0  0.00   0.0   0.146   0.000   13.8    52    4.1   12.8    0.00   351    1    100.0   15 
23/11/20   3.30    3.9    4.7    3.9    86    1.8   0.0   ---   0.00   0.0   ---    3.9    3.8    3.8    2.1  ------  0.00   0.0     0     0.00      0     0.0  0.00   0.0   0.150   0.000   13.8    52    4.1   12.8    0.00   351    1    100.0   15 
23/11/20   3.45    4.0    4.0    3.8    87    2.0   0.0   ---   0.00   0.0   ---    4.0    3.9    3.9    2.2  ------  0.00   0.0     0     0.00      0     0.0  0.00   0.0   0.149   0.000   13.7    52    4.0   12.7    0.00   350    1    100.0   15 
23/11/20   4.00    4.1    4.4    3.9    87    2.1   0.0   ---   0.00   0.0   ---    4.1    3.9    3.9    2.3  ------  0.00   0.0     0     0.00      0     0.0  0.00   0.0   0.149   0.000   13.7    52    4.0   12.7    0.00   350    1    100.0   15 
23/11/20   4.15    3.6    4.1    3.6    87    1.6   0.0   ---   0.00   0.0   ---    3.6    3.5    3.5    1.8  ------  0.00   0.0     0     0.00      0     0.0  0.00   0.0   0.153   0.000   13.7    52    4.0   12.7    0.00   350    1    100.0   15 
23/11/20   4.30    3.6    3.8    3.5    88    1.8   0.0   ---   0.00   0.0   ---    3.6    3.5    3.5    1.8  ------  0.00   0.0     0     0.00      0     0.0  0.00   0.0   0.154   0.000   13.6    51    3.7   12.6    0.00   351    1    100.0   15 
23/11/20   4.45    3.4    3.8    3.4    88    1.6   0.0   ---   0.00   0.0   ---    3.4    3.4    3.4    1.7  ------  0.00   0.0     0     0.00      0     0.0  0.00   0.0   0.155   0.000   13.6    52    3.9   12.6    0.00   351    1    100.0   15 
23/11/20   5.00    4.0    4.0    3.4    89    2.4   0.0   ---   0.00   0.0   ---    4.0    3.9    3.9    2.3  ------  0.00   0.0     0     0.00      0     0.0  0.00   0.0   0.149   0.000   13.6    51    3.7   12.6    0.00   351    1    100.0   15 
23/11/20   5.15    4.2    4.2    4.0    88    2.4   0.0   ---   0.00   0.0   ---    4.2    4.1    4.1    2.4  ------  0.00   0.0     0     0.00      0     0.0  0.00   0.0   0.148   0.000   13.6    51    3.7   12.6    0.00   350    1    100.0   15 
23/11/20   5.30    3.9    4.2    3.9    89    2.3   0.0   ---   0.00   0.0   ---    3.9    3.9    3.9    2.2  ------  0.00   0.0     0     0.00      0     0.0  0.00   0.0   0.150   0.000   13.6    52    3.9   12.6    0.00   350    1    100.0   15 
23/11/20   5.45    4.0    4.3    3.7    89    2.4   0.0   ---   0.00   0.0   ---    4.0    3.9    3.9    2.3  ------  0.00   0.0     0     0.00      0     0.0  0.00   0.0   0.149   0.000   13.6    52    3.9   12.6    0.00   352    1    100.0   15 
23/11/20   6.00    3.9    4.4    3.9    89    2.3   0.0   ---   0.00   0.0   ---    3.9    3.9    3.9    2.2  ------  0.00   0.0     0     0.00      0     0.0  0.00   0.0   0.150   0.000   13.6    52    3.9   12.6    0.00   351    1    100.0   15 
23/11/20   6.15    3.8    3.9    3.4    89    2.2   0.0   ---   0.00   0.0   ---    3.8    3.8    3.8    2.1  ------  0.00   0.0     0     0.00      0     0.0  0.00   0.0   0.151   0.000   13.6    52    3.9   12.6    0.00   351    1    100.0   15 
23/11/20   6.30    3.1    4.2    3.1    89    1.4   0.0   ---   0.00   0.0   ---    3.1    3.0    3.0    1.3  ------  0.00   0.0     0     0.00      0     0.0  0.00   0.0   0.159   0.000   13.4    52    3.8   12.4    0.00   350    1    100.0   15 
23/11/20   6.45    4.2    4.2    3.1    90    2.7   0.0   ---   0.00   0.0   ---    4.2    4.1    4.1    2.4  ------  0.00   0.0     0     0.00      0     0.0  0.00   0.0   0.148   0.000   13.4    52    3.8   12.4    0.00   351    1    100.0   15 
23/11/20   7.00    4.2    4.6    4.2    90    2.7   0.0   ---   0.00   0.0   ---    4.2    4.1    4.1    2.4  ------  0.00   0.0     0     0.00      0     0.0  0.00   0.0   0.148   0.000   13.4    52    3.8   12.4    0.00   352    1    100.0   15 
23/11/20   7.15    4.2    4.2    3.8    89    2.5   0.0   ---   0.00   0.0   ---    4.2    4.1    4.1    2.4  ------  0.00   0.0     0     0.00      0     0.0  0.00   0.0   0.148   0.000   13.4    52    3.7   12.4    0.00   351    1    100.0   15 
23/11/20   7.30    4.3    4.5    4.2    90    2.8   0.0   ---   0.00   0.0   ---    4.3    4.3    4.3    2.7  ------  0.00   0.0     6     0.13      9     0.0  0.00   0.0   0.146   0.000   13.4    52    3.7   12.4    0.00   351    1    100.0   15 
23/11/20   7.45    4.7    4.7    4.2    90    3.2   0.0   ---   0.00   0.0   ---    4.7    4.6    4.6    3.2  ------  0.00   0.0    16     0.34     25     0.0  0.00   0.0   0.142   0.000   13.4    53    4.0   12.4    0.00   351    1    100.0   15 
23/11/20   8.00    4.3    4.7    4.2    90    2.8   0.0   ---   0.00   0.0   ---    4.3    4.3    4.3    3.1  ------  0.00   0.0    36     0.77     49     0.0  0.00   0.0   0.146   0.000   13.4    53    4.0   12.4    0.00   351    1    100.0   15 
23/11/20   8.15    4.9    5.1    4.3    90    3.4   0.0   ---   0.00   0.0   ---    4.9    4.9    4.9    4.1  ------  0.00   0.0    66     1.42     81     0.0  0.00   0.0   0.139   0.000   13.4    53    4.0   12.4    0.00   351    1    100.0   15 
23/11/20   8.30    5.4    5.4    4.9    90    3.9   0.0   ---   0.00   0.0   ---    5.4    5.4    5.4    5.1  ------  0.00   0.0   101     2.17    118     0.0  0.00   0.0   0.135   0.000   13.4    53    4.0   12.4    0.00   348    1    100.0   15 
23/11/20   8.45    6.3    6.3    5.4    90    4.8   0.0   ---   0.00   0.0   ---    6.3    6.3    6.3    7.8  ------  0.00   0.0   139     2.99    156     0.0  0.00   0.0   0.125   0.000   13.4    54    4.3   12.4    0.00   351    1    100.0   15 
23/11/20   9.00    7.6    7.6    6.3    90    6.0   0.0   ---   0.00   0.0   ---    7.6    7.6    7.6    9.9  ------  0.00   0.0   180     3.87    202     0.0  0.00   0.0   0.112   0.000   13.4    55    4.5   12.5    0.05   351    1    100.0   15 
23/11/20   9.15    8.8    8.8    7.6    89    7.1   0.0   ---   0.00   0.0   ---    8.8    8.9    8.9   12.3  ------  0.00   0.0   230     4.95    255     0.0  0.00   0.0   0.099   0.000   13.4    55    4.6   12.6    0.00   351    1    100.0   15 
23/11/20   9.30   10.0   10.0    8.8    87    7.9   0.0   ---   0.00   0.0   ---   10.0   10.1   10.1   14.2  ------  0.00   0.0   274     5.89    290     0.0  0.00   0.0   0.087   0.000   13.6    56    4.9   12.7    0.00   350    1    100.0   15 
23/11/20   9.45   11.2   11.2   10.0    84    8.6   0.0   ---   0.00   0.0   ---   11.2   11.2   11.2   15.6  ------  0.00   0.0   303     6.52    316     0.0  0.00   0.0   0.074   0.000   13.6    56    4.9   12.7    0.00   351    1    100.0   15 
23/11/20  10.00   12.5   12.5   11.2    79    9.0   0.0   ---   0.00   0.0   ---   12.5   12.3   12.3   16.9  ------  0.00   0.0   328     7.05    345     0.0  0.00   0.0   0.061   0.000   13.6    56    5.0   12.8    0.13   351    1    100.0   15 
23/11/20  10.15   13.7   13.7   12.6    75    9.4   0.0   ---   0.00   0.0   ---   13.7   13.4   13.4   18.2  ------  0.00   0.0   354     7.61    362     0.0  0.00   0.0   0.048   0.000   13.7    56    5.0   12.8    0.00   351    1    100.0   15 
23/11/20  10.30   14.7   14.7   13.7    62    7.5   0.0   ---   0.00   0.0   ---   14.7   14.0   14.0   18.8  ------  0.00   0.0   370     7.96    380     0.0  0.00   0.0   0.038   0.000   13.8    56    5.1   12.9    0.00   350    1    100.0   15 
23/11/20  10.45   15.0   15.0   14.7    62    7.8   0.0    NE   0.00   8.0    NE   15.0   14.3   14.3   19.3  ------  0.00   0.0   387     8.32    401     0.0  0.00   0.0   0.035   0.000   13.9    56    5.3   13.1    0.00   350    1    100.0   15 
23/11/20  11.00   14.8   15.0   14.8    65    8.3   1.6    NE   0.40   8.0    NE   14.8   14.2   14.2   19.3  ------  0.00   0.0   407     8.75    411     0.0  0.00   0.0   0.037   0.000   14.0    56    5.4   13.2    0.20   350    1    100.0   15 
23/11/20  11.15   14.8   14.8   14.7    65    8.3   0.0    NE   0.00   6.4    NE   14.8   14.2   14.2   19.4  ------  0.00   0.0   417     8.97    424     0.0  0.00   0.0   0.037   0.000   14.2    56    5.5   13.3    0.00   345    1    100.0   15 
23/11/20  11.30   14.7   14.9   14.7    65    8.2   3.2    NE   0.80  11.3    NE   14.7   14.1   14.1   19.4  ------  0.00   0.0   429     9.22    432     0.0  0.00   0.0   0.038   0.000   14.3    56    5.6   13.4    0.00   351    1    100.0   15 
23/11/20  11.45   14.8   14.8   14.6    65    8.3   3.2    NE   0.80  11.3    NE   14.8   14.2   14.2   19.5  ------  0.00   0.0   435     9.35    438     0.0  0.00   0.0   0.037   0.000   14.3    56    5.7   13.5    0.00   350    1    100.0   15 
23/11/20  12.00   14.9   15.0   14.7    65    8.4   3.2    NE   0.80   9.7    NE   14.9   14.4   14.4   19.7  ------  0.00   0.0   438     9.42    439     0.0  0.00   0.0   0.035   0.000   14.6    57    6.1   13.7    0.23   351    1    100.0   15 
23/11/20  12.15   14.7   14.9   14.7    65    8.2   3.2    NE   0.80   9.7    NE   14.7   14.2   14.2   19.4  ------  0.00   0.0   438     9.42    439     0.0  0.00   0.0   0.038   0.000   14.7    57    6.3   13.9    0.00   351    1    100.0   15 
23/11/20  12.30   14.7   14.8   14.7    65    8.2   3.2    NE   0.80   8.0    NE   14.7   14.2   14.2   19.4  ------  0.00   0.0   435     9.35    436     0.0  0.00   0.0   0.038   0.000   14.9    57    6.4   14.1    0.00   349    1    100.0   15 
23/11/20  12.45   14.7   14.9   14.7    65    8.2   3.2    NE   0.80   8.0    NE   14.7   14.2   14.2   19.4  ------  0.00   0.0   429     9.22    432     0.0  0.00   0.0   0.038   0.000   15.1    57    6.6   14.2    0.00   349    1    100.0   15 
23/11/20  13.00   15.0   15.0   14.7    65    8.5   1.6    NE   0.40   8.0    NE   15.0   14.4   14.4   19.7  ------  0.00   0.0   422     9.07    427     0.0  0.00   0.0   0.035   0.000   15.2    56    6.5   14.4    0.23   351    1    100.0   15 
23/11/20  13.15   14.8   15.0   14.8    65    8.3   3.2    NE   0.80  11.3    NE   14.8   14.3   14.3   19.4  ------  0.00   0.0   413     8.88    417     0.0  0.00   0.0   0.036   0.000   15.4    56    6.7   14.6    0.00   350    1    100.0   15 
23/11/20  13.30   14.8   14.9   14.8    66    8.5   3.2    NE   0.80  11.3    NE   14.8   14.3   14.3   19.4  ------  0.00   0.0   400     8.60    406     0.0  0.00   0.0   0.036   0.000   15.4    56    6.7   14.6    0.00   350    1    100.0   15 
23/11/20  13.45   14.8   14.8   14.7    66    8.5   3.2    NE   0.80  14.5    NE   14.8   14.3   14.3   19.2  ------  0.00   0.0   381     8.19    390     0.0  0.00   0.0   0.037   0.000   15.6    57    7.1   14.7    0.00   351    1    100.0   15 
23/11/20  14.00   14.8   14.9   14.8    64    8.1   3.2    NE   0.80  11.3    NE   14.8   14.2   14.2   19.0  ------  0.00   0.0   361     7.76    373     0.0  0.00   0.0   0.036   0.000   15.6    56    6.9   14.8    0.23   350    1    100.0   15 
23/11/20  14.15   14.8   14.8   14.7    63    7.8   3.2    NE   0.80  11.3    NE   14.8   14.2   14.2   18.8  ------  0.00   0.0   339     7.29    346     0.0  0.00   0.0   0.037   0.000   15.6    57    7.1   14.8    0.00   351    1    100.0   15 
23/11/20  14.30   14.7   14.8   14.7    63    7.7   3.2    NE   0.80  11.3    NE   14.7   14.1   14.1   18.3  ------  0.00   0.0   306     6.58    371     0.0  0.00   0.0   0.038   0.000   15.4    57    7.0   14.6    0.00   350    1    100.0   15 
23/11/20  14.45   14.6   14.8   14.6    63    7.6   4.8    NE   1.21  14.5    NE   14.6   13.9   13.9   18.6  ------  0.00   0.0   347     7.46    374     0.0  0.00   0.0   0.039   0.000   15.3    57    6.8   14.4    0.00   351    1    100.0   15 
23/11/20  15.00   14.4   14.6   14.4    63    7.5   1.6    NE   0.40   8.0    NE   14.4   13.8   13.8   17.7  ------  0.00   0.0   259     5.57    290     0.0  0.00   0.0   0.041   0.000   15.2    57    6.8   14.4    0.18   351    1    100.0   15 
23/11/20  15.15   14.4   14.5   14.4    64    7.7   1.6    NE   0.40   8.0    NE   14.4   13.8   13.8   17.1  ------  0.00   0.0   216     4.64    237     0.0  0.00   0.0   0.041   0.000   15.1    57    6.6   14.2    0.00   350    1    100.0   15 
23/11/20  15.30   14.3   14.4   14.3    64    7.6   1.6    NE   0.40   9.7    NE   14.3   13.7   13.7   16.3  ------  0.00   0.0   171     3.68    188     0.0  0.00   0.0   0.042   0.000   14.9    58    6.7   14.2    0.00   352    1    100.0   15 
23/11/20  15.45   14.1   14.3   14.1    65    7.6   1.6    NE   0.40   9.7    NE   14.1   13.6   13.6   15.2  ------  0.00   0.0   120     2.58    149     0.0  0.00   0.0   0.044   0.000   14.9    57    6.4   14.1    0.00   351    1    100.0   15 
23/11/20  16.00   13.8   14.1   13.8    67    7.8   0.0    NE   0.00   3.2    NE   13.8   13.3   13.3   14.3  ------  0.00   0.0    89     1.91    100     0.0  0.00   0.0   0.047   0.000   14.9    58    6.7   14.1    0.08   351    1    100.0   15 
23/11/20  16.15   13.5   13.8   13.5    67    7.5   0.0    NE   0.00   3.2    NE   13.5   13.0   13.0   13.4  ------  0.00   0.0    60     1.29     77     0.0  0.00   0.0   0.050   0.000   14.8    58    6.6   14.0    0.00   350    1    100.0   15 
23/11/20  16.30   13.1   13.5   13.0    68    7.3   0.0    NE   0.00   3.2    NE   13.1   12.6   12.6   12.1  ------  0.00   0.0    26     0.56     44     0.0  0.00   0.0   0.055   0.000   14.7    58    6.5   13.9    0.00   351    1    100.0   15 
23/11/20  16.45   12.4   13.1   12.4    71    7.3   0.0   ---   0.00   0.0   ---   12.4   12.0   12.0   10.7  ------  0.00   0.0    11     0.24     16     0.0  0.00   0.0   0.062   0.000   14.6    58    6.4   13.8    0.00   351    1    100.0   15 
23/11/20  17.00   12.0   12.4   12.0    72    7.1   0.0   ---   0.00   0.0   ---   12.0   11.7   11.7   10.2  ------  0.00   0.0     2     0.04      7     0.0  0.00   0.0   0.066   0.000   14.6    58    6.4   13.8    0.03   351    1    100.0   15 
23/11/20  17.15   11.2   12.0   11.2    74    6.8   0.0   ---   0.00   0.0   ---   11.2   10.9   10.9    9.4  ------  0.00   0.0     0     0.00      0     0.0  0.00   0.0   0.074   0.000   14.6    59    6.6   13.8    0.00   350    1    100.0   15 
23/11/20  17.30   10.5   11.2   10.5    76    6.4   0.0   ---   0.00   0.0   ---   10.5   10.4   10.4    8.8  ------  0.00   0.0     0     0.00      0     0.0  0.00   0.0   0.082   0.000   14.6    59    6.6   13.8    0.00   351    1    100.0   15 
23/11/20  17.45   10.0   10.5   10.0    78    6.3   0.0   ---   0.00   0.0   ---   10.0    9.9    9.9    8.4  ------  0.00   0.0     0     0.00      0     0.0  0.00   0.0   0.087   0.000   14.4    59    6.5   13.7    0.00   352    1    100.0   15 
23/11/20  18.00    9.3   10.0    9.3    79    5.8   0.0   ---   0.00   0.0   ---    9.3    9.2    9.2    7.7  ------  0.00   0.0     0     0.00      0     0.0  0.00   0.0   0.094   0.000   14.4    59    6.5   13.7    0.00   350    1    100.0   15 
23/11/20  18.15    8.8    9.3    8.8    81    5.7   0.0   ---   0.00   0.0   ---    8.8    8.8    8.8    7.2  ------  0.00   0.0     0     0.00      0     0.0  0.00   0.0   0.099   0.000   14.3    60    6.7   13.6    0.00   350    1    100.0   15 
23/11/20  18.30    8.6    8.8    8.6    82    5.7   0.0   ---   0.00   0.0   ---    8.6    8.5    8.5    6.9  ------  0.00   0.0     0     0.00      0     0.0  0.00   0.0   0.102   0.000   14.3    60    6.7   13.6    0.00   350    1    100.0   15 
23/11/20  18.45    8.2    8.6    8.2    83    5.5   0.0   ---   0.00   0.0   ---    8.2    8.1    8.1    6.5  ------  0.00   0.0     0     0.00      0     0.0  0.00   0.0   0.106   0.000   14.3    60    6.6   13.6    0.00   352    1    100.0   15 
23/11/20  19.00    8.1    8.2    8.1    84    5.6   0.0   ---   0.00   0.0   ---    8.1    8.1    8.1    6.6  ------  0.00   0.0     0     0.00      0     0.0  0.00   0.0   0.106   0.000   14.3    60    6.6   13.6    0.00   351    1    100.0   15 
23/11/20  19.15    7.8    8.2    7.8    84    5.3   0.0   ---   0.00   0.0   ---    7.8    7.8    7.8    6.2  ------  0.00   0.0     0     0.00      0     0.0  0.00   0.0   0.109   0.000   14.2    60    6.5   13.4    0.00   351    1    100.0   15 
23/11/20  19.30    7.7    7.8    7.6    84    5.1   0.0   ---   0.00   0.0   ---    7.7    7.6    7.6    6.0  ------  0.00   0.0     0     0.00      0     0.0  0.00   0.0   0.111   0.000   14.2    60    6.5   13.4    0.00   351    1    100.0   15 
23/11/20  19.45    7.6    7.7    7.6    85    5.2   0.0   ---   0.00   0.0   ---    7.6    7.6    7.6    6.0  ------  0.00   0.0     0     0.00      0     0.0  0.00   0.0   0.112   0.000   14.2    60    6.5   13.4    0.00   351    1    100.0   15 
23/11/20  20.00    7.1    7.6    7.1    85    4.8   0.0   ---   0.00   0.0   ---    7.1    7.1    7.1    5.4  ------  0.00   0.0     0     0.00      0     0.0  0.00   0.0   0.117   0.000   14.1    60    6.5   13.4    0.00   351    1    100.0   15 
23/11/20  20.15    6.8    7.2    6.8    86    4.7   0.0   ---   0.00   0.0   ---    6.8    6.8    6.8    5.2  ------  0.00   0.0     0     0.00      0     0.0  0.00   0.0   0.120   0.000   14.1    60    6.5   13.4    0.00   351    1    100.0   15 
23/11/20  20.30    6.6    6.8    6.6    86    4.4   0.0   ---   0.00   0.0   ---    6.6    6.5    6.5    4.9  ------  0.00   0.0     0     0.00      0     0.0  0.00   0.0   0.123   0.000   14.0    60    6.4   13.3    0.00   351    1    100.0   15 
23/11/20  20.45    6.8    6.8    6.6    87    4.8   0.0   ---   0.00   0.0   ---    6.8    6.8    6.8    5.2  ------  0.00   0.0     0     0.00      0     0.0  0.00   0.0   0.120   0.000   14.0    59    6.1   13.2    0.00   350    1    100.0   15 
23/11/20  21.00    6.8    6.8    6.7    87    4.8   0.0   ---   0.00   0.0   ---    6.8    6.8    6.8    5.2  ------  0.00   0.0     0     0.00      0     0.0  0.00   0.0   0.120   0.000   13.9    59    6.1   13.2    0.00   352    1    100.0   15 
23/11/20  21.15    6.8    7.0    6.8    87    4.8   0.0   ---   0.00   0.0   ---    6.8    6.8    6.8    5.2  ------  0.00   0.0     0     0.00      0     0.0  0.00   0.0   0.120   0.000   13.9    59    6.1   13.2    0.00   350    1    100.0   15 
23/11/20  21.30    6.8    6.9    6.8    87    4.8   1.6    NE   0.40   8.0    NE    6.8    6.8    6.8    5.2  ------  0.00   0.0     0     0.00      0     0.0  0.00   0.0   0.120   0.000   13.9    59    6.1   13.2    0.00   350    1    100.0   15 
23/11/20  21.45    6.8    7.1    6.8    87    4.8   3.2    NE   0.80   8.0    NE    6.8    6.8    6.8    5.2  ------  0.00   0.0     0     0.00      0     0.0  0.00   0.0   0.120   0.000   13.8    59    6.0   13.1    0.00   350    1    100.0   15 
23/11/20  22.00    6.6    6.9    6.6    87    4.6   3.2    NE   0.80   8.0    NE    6.6    6.6    6.6    5.0  ------  0.00   0.0     0     0.00      0     0.0  0.00   0.0   0.122   0.000   13.8    59    6.0   13.1    0.00   351    1    100.0   15 
23/11/20  22.15    6.6    6.7    6.6    88    4.7   3.2    NE   0.80   9.7    NE    6.6    6.6    6.6    4.9  ------  0.00   0.0     0     0.00      0     0.0  0.00   0.0   0.123   0.000   13.8    59    6.0   13.1    0.00   351    1    100.0   15 
23/11/20  22.30    6.6    6.7    6.4    88    4.8   1.6    NE   0.40   6.4    NE    6.6    6.6    6.6    5.0  ------  0.00   0.0     0     0.00      0     0.0  0.00   0.0   0.122   0.000   13.8    59    6.0   13.1    0.00   351    1    100.0   15 
23/11/20  22.45    7.1    7.1    6.6    88    5.3   3.2    NE   0.80   6.4    NE    7.1    7.1    7.1    5.5  ------  0.00   0.0     0     0.00      0     0.0  0.00   0.0   0.117   0.000   13.8    59    6.0   13.1    0.00   351    1    100.0   15 
23/11/20  23.00    7.1    7.2    7.1    88    5.3   3.2    NE   0.80   8.0    NE    7.1    7.1    7.1    5.5  ------  0.00   0.0     0     0.00      0     0.0  0.00   0.0   0.117   0.000   13.8    60    6.1   13.1    0.00   351    1    100.0   15 
23/11/20  23.15    7.1    7.2    7.0    88    5.2   1.6    NE   0.40   4.8    NE    7.1    7.1    7.1    5.4  ------  0.00   0.0     0     0.00      0     0.0  0.00   0.0   0.117   0.000   13.8    60    6.1   13.1    0.00   352    1    100.0   15 
23/11/20  23.30    7.4    7.6    7.0    88    5.5   3.2    NE   0.80   6.4    NE    7.4    7.4    7.4    5.8  ------  0.00   0.0     0     0.00      0     0.0  0.00   0.0   0.114   0.000   13.8    60    6.1   13.1    0.00   351    1    100.0   15 
23/11/20  23.45    8.6    8.6    7.1    88    6.7   3.2    NE   0.80   8.0    NE    8.6    8.7    8.7    7.2  ------  0.00   0.0     0     0.00      0     0.0  0.00   0.0   0.101   0.000   13.8    60    6.1   13.1    0.00   350    1    100.0   15 
24/11/20  00.00    8.7    9.3    8.7    85    6.3   1.6    NE   0.40   8.0    NE    8.7    8.7    8.7    7.1  ------  0.00   0.0     0     0.00      0     0.0  0.00   0.0   0.101   0.000   13.7    60    6.0   12.9    0.00   351    1    100.0   15 
24/11/20   0.15    8.8    8.8    8.6    85    6.4   0.0    NE   0.00   4.8    NE    8.8    8.8    8.8    7.3  ------  0.00   0.0     0     0.00      0     0.0  0.00   0.0   0.099   0.000   13.7    60    6.0   12.9    0.00   348    1    100.0   15 
24/11/20   0.30    8.6    8.8    8.4    86    6.4   3.2    NE   0.80   6.4    NE    8.6    8.6    8.6    7.1  ------  0.00   0.0     0     0.00      0     0.0  0.00   0.0   0.101   0.000   13.7    60    6.0   12.9    0.00   351    1    100.0   15 
24/11/20   0.45    9.1    9.2    8.6    85    6.7   1.6    NE   0.40   6.4    NE    9.1    9.1    9.1    7.5  ------  0.00   0.0     0     0.00      0     0.0  0.00   0.0   0.097   0.000   13.7    60    6.0   12.9    0.00   351    1    100.0   15 
24/11/20   1.00    8.9    9.1    8.9    85    6.5   0.0    NE   0.00   4.8    NE    8.9    8.9    8.9    7.3  ------  0.00   0.0     0     0.00      0     0.0  0.00   0.0   0.098   0.000   13.7    60    6.0   12.9    0.00   351    1    100.0   15 
24/11/20   1.15    8.3    8.9    8.3    85    6.0   1.6    NE   0.40   4.8    NE    8.3    8.3    8.3    6.8  ------  0.00   0.0     0     0.00      0     0.0  0.00   0.0   0.104   0.000   13.7    61    6.3   13.0    0.00   351    1    100.0   15 
24/11/20   1.30    7.9    8.4    7.9    86    5.7   1.6    NE   0.40   4.8    NE    7.9    7.9    7.9    6.4  ------  0.00   0.0     0     0.00      0     0.0  0.00   0.0   0.108   0.000   13.7    61    6.3   13.0    0.00   350    1    100.0   15 
24/11/20   1.45    7.8    7.9    7.7    87    5.8   1.6    NE   0.40   4.8    NE    7.8    7.8    7.8    6.3  ------  0.00   0.0     0     0.00      0     0.0  0.00   0.0   0.109   0.000   13.7    61    6.3   13.0    0.00   350    1    100.0   15 
24/11/20   2.00    8.2    8.4    7.8    87    6.2   1.6    NE   0.40   4.8    NE    8.2    8.3    8.3    6.7  ------  0.00   0.0     0     0.00      0     0.0  0.00   0.0   0.105   0.000   13.7    61    6.3   13.0    0.00   351    1    100.0   15 
24/11/20   2.15    7.8    8.3    7.8    86    5.6   1.6    NE   0.40   4.8    NE    7.8    7.8    7.8    6.2  ------  0.00   0.0     0     0.00      0     0.0  0.00   0.0   0.110   0.000   13.6    61    6.2   12.9    0.00   350    1    100.0   15 
24/11/20   2.30    8.3    8.3    7.6    88    6.5   1.6    NE   0.40   3.2    NE    8.3    8.4    8.4    6.8  ------  0.00   0.0     0     0.00      0     0.0  0.00   0.0   0.104   0.000   13.6    61    6.2   12.9    0.00   350    1    100.0   15 
24/11/20   2.45    7.8    8.5    7.8    87    5.8   1.6    NE   0.40   6.4    NE    7.8    7.8    7.8    6.3  ------  0.00   0.0     0     0.00      0     0.0  0.00   0.0   0.109   0.000   13.6    61    6.2   12.9    0.00   351    1    100.0   15 
24/11/20   3.00    7.8    7.8    7.6    88    5.9   1.6    NE   0.40   6.4    NE    7.8    7.8    7.8    6.3  ------  0.00   0.0     0     0.00      0     0.0  0.00   0.0   0.110   0.000   13.6    61    6.2   12.9    0.00   350    1    100.0   15 
24/11/20   3.15    7.6    7.8    7.6    88    5.7   0.0    NE   0.00   3.2    NE    7.6    7.6    7.6    6.1  ------  0.00   0.0     0     0.00      0     0.0  0.00   0.0   0.112   0.000   13.6    61    6.2   12.9    0.00   351    1    100.0   15 
24/11/20   3.30    7.4    7.7    7.4    88    5.6   0.0    NE   0.00   4.8    NE    7.4    7.4    7.4    5.9  ------  0.00   0.0     0     0.00      0     0.0  0.00   0.0   0.113   0.000   13.6    61    6.2   12.9    0.00   351    1    100.0   15 
24/11/20   3.45    7.3    7.4    7.3    88    5.5   0.0    NE   0.00   3.2    NE    7.3    7.3    7.3    5.7  ------  0.00   0.0     0     0.00      0     0.0  0.00   0.0   0.115   0.000   13.6    61    6.2   12.9    0.00   348    1    100.0   15 
24/11/20   4.00    7.0    7.3    7.0    88    5.1   0.0    NE   0.00   1.6    NE    7.0    7.0    7.0    5.4  ------  0.00   0.0     0     0.00      0     0.0  0.00   0.0   0.118   0.000   13.6    61    6.2   12.9    0.00   350    1    100.0   15 
24/11/20   4.15    7.1    7.2    7.0    88    5.2   0.0    NE   0.00   3.2    NE    7.1    7.1    7.1    5.4  ------  0.00   0.0     0     0.00      0     0.0  0.00   0.0   0.117   0.000   13.6    61    6.2   12.9    0.00   350    1    100.0   15 
24/11/20   4.30    7.2    7.3    7.0    89    5.5   0.0   ---   0.00   0.0   ---    7.2    7.3    7.3    5.7  ------  0.00   0.0     0     0.00      0     0.0  0.00   0.0   0.116   0.000   13.6    61    6.2   12.9    0.00   351    1    100.0   15 
24/11/20   4.45    7.8    7.8    7.2    89    6.1   1.6    NE   0.40   8.0    NE    7.8    7.9    7.9    6.3  ------  0.00   0.0     0     0.00      0     0.0  0.00   0.0   0.109   0.000   13.6    60    5.9   12.8    0.00   350    1    100.0   15 
24/11/20   5.00   10.6   10.6    7.8    84    8.0   6.4    NE   1.61  11.3    NE   10.0   10.6   10.0    8.5  ------  0.00   0.0     0     0.00      0     0.0  0.00   0.0   0.081   0.000   13.6    60    5.9   12.8    0.00   351    1    100.0   15 
© www.elbaexplorer.com